Cleveland, Minnesota
Current Conditions -  °F | °C
As of 2:55 PM on Friday 21 Nov 2014 (Local Time) from KMKT Reporting Station
Clear Clear  
Wind Chill: 18°   Ceiling: Unl
Heat Index: 30°   Visibility: 10mi
Dew Point: 19°   Wind: 20mph
Humidity: 64%   Direction: 180°S
Pressure: 30.01"   Gusts: 24mph
Location:  44.33°N, 93.84°W
Report Text: KMKT 212055Z AUTO 18017G21KT 10SM CLR M01/M07 A3001 RMK AO1 57030
Loading
Personal Weather Stations






























Interactive Weather Map New forecast layout! Learn more

10-Day Weather Forecast

Advertisements
Track Severe Weather on mobile